MSC Gina — 3FLY9 — position and weather

sailwx.info

Track history (hours):
 
Tides and Currents Weather Stations Pressure Air Temp Water Temp Dewpoint Dewpoint Depression Visibility Wind Speed Wind Dir Waves Ship Positions

MSC Gina

Last reported at 2017-Feb-24 12:25 UTC. Time now 2017-Feb-24 12:39 UTC.
Position N 37°04' W 000°49'.

Length 259 m; draft 10.4 m.

Type: Ship (hazmat cat A). MMSI: 357542000.

Date/timePositionNaut miles runAvg speedWind from/ knotsBaromVisibWave heightAir tempDewpointWater temp
2017-Feb-24 12:25N 37°04' W 000°49'16120.1
2017-Feb-24 04:26N 38°22' E 002°08'1819.9
2017-Feb-24 03:33N 38°31' E 002°27'2020.3
2017-Feb-24 02:33N 38°42' E 002°50'2020.3
2017-Feb-24 01:33N 38°52' E 003°12'2019.4
2017-Feb-24 00:32N 39°03' E 003°34'2020.0
2017-Feb-23 23:33N 39°13' E 003°55'7919.7
2017-Feb-23 19:33N 40°04' E 005°13'2019.6
2017-Feb-23 18:31N 40°19' E 005°30'3819.5
2017-Feb-23 16:33N 40°49' E 006°03'10019.8
2017-Feb-23 11:31N 42°05' E 007°28'9719.5
2017-Feb-23 06:33N 43°08' E 009°08'1919.6
2017-Feb-23 05:33N 43°20' E 009°29'2020.0
2017-Feb-23 04:33N 43°31' E 009°52'1817.7
2017-Feb-23 03:33N 43°32' E 010°16'3 2.7
2017-Feb-23 02:32N 43°35' E 010°18'0 0.0
2017-Feb-23 01:26N 43°35' E 010°18'0 0.0
2017-Feb-23 00:33N 43°35' E 010°18'0 0.0
2017-Feb-22 23:33N 43°35' E 010°18'0 0.0
2017-Feb-22 22:33N 43°35' E 010°18'0 0.0
2017-Feb-22 21:33N 43°35' E 010°18'0 0.0
2017-Feb-22 20:33N 43°35' E 010°18'0 0.0
2017-Feb-22 19:33N 43°35' E 010°18'0 0.0
2017-Feb-22 18:33N 43°35' E 010°18'0 0.0
2017-Feb-22 17:33N 43°35' E 010°18'0 0.0
2017-Feb-22 16:33N 43°35' E 010°18'0 0.0
2017-Feb-22 15:33N 43°35' E 010°18'0 0.0
2017-Feb-22 14:33N 43°35' E 010°18'0 0.0
2017-Feb-22 13:33N 43°35' E 010°18'0 0.0
2017-Feb-22 12:33N 43°35' E 010°18'0 0.0
2017-Feb-22 11:33N 43°35' E 010°18'0 0.0
2017-Feb-22 10:33N 43°35' E 010°18'0 0.0
2017-Feb-22 09:33N 43°35' E 010°18'0 0.0
2017-Feb-22 08:33N 43°35' E 010°18'0 0.0
2017-Feb-22 07:33N 43°35' E 010°18'0 0.0
2017-Feb-22 06:33N 43°35' E 010°18'0 0.0
2017-Feb-22 05:33N 43°35' E 010°18'0 0.0
2017-Feb-22 04:33N 43°35' E 010°18'0 0.0
2017-Feb-22 03:33N 43°35' E 010°18'0 0.0
2017-Feb-22 02:33N 43°35' E 010°18'0 0.0
2017-Feb-22 01:33N 43°35' E 010°18'0 0.0
2017-Feb-22 00:33N 43°35' E 010°18'0 0.0
2017-Feb-21 23:33N 43°35' E 010°18'0 0.0
2017-Feb-21 22:33N 43°35' E 010°18'0 0.0
2017-Feb-21 21:33N 43°35' E 010°18'0 0.0
2017-Feb-21 20:33N 43°35' E 010°18'0 0.0
2017-Feb-21 19:33N 43°35' E 010°18'0 0.0
2017-Feb-21 18:33N 43°35' E 010°18'2 1.9
2017-Feb-21 17:33N 43°33' E 010°17'10 9.5
2017-Feb-21 16:33N 43°29' E 010°06'2120.9
2017-Feb-21 15:34N 43°39' E 009°40'2120.8
2017-Feb-21 14:34N 43°54' E 009°21'2120.9
2017-Feb-21 13:34N 44°09' E 008°60'1918.6
2017-Feb-21 12:33N 44°23' E 008°43'4 3.5
2017-Feb-21 11:32N 44°25' E 008°47'0 0.0
2017-Feb-21 10:32N 44°25' E 008°47'0 0.0
2017-Feb-21 09:32N 44°25' E 008°47'0 0.0
2017-Feb-21 08:32N 44°25' E 008°47'0 0.0
2017-Feb-21 07:32N 44°25' E 008°47'0 0.0
2017-Feb-21 06:32N 44°25' E 008°47'0 0.0
2017-Feb-21 05:32N 44°25' E 008°47'0 0.0
2017-Feb-21 04:32N 44°25' E 008°47'0 0.0
2017-Feb-21 03:32N 44°25' E 008°47'0 0.0
2017-Feb-21 02:32N 44°25' E 008°47'0 0.0
2017-Feb-21 01:29N 44°25' E 008°47'0 0.0
2017-Feb-21 00:32N 44°25' E 008°47'0 0.0
2017-Feb-20 23:32N 44°25' E 008°47'0 0.0
2017-Feb-20 22:32N 44°25' E 008°47'0 0.0
2017-Feb-20 21:32N 44°25' E 008°47'0 0.0
2017-Feb-20 20:32N 44°25' E 008°47'0 0.0
2017-Feb-20 19:32N 44°25' E 008°47'0 0.0
2017-Feb-20 18:32N 44°25' E 008°47'0 0.0
2017-Feb-20 17:32N 44°25' E 008°47'1 1.2
2017-Feb-20 16:33N 44°25' E 008°46'1 1.5
2017-Feb-20 15:34N 44°24' E 008°45'0 0.0
2017-Feb-20 14:32N 44°24' E 008°45'0 0.0
2017-Feb-20 13:32N 44°24' E 008°45'0 0.0
2017-Feb-20 12:32N 44°24' E 008°45'0 0.0
2017-Feb-20 11:32N 44°24' E 008°45'0 0.1
2017-Feb-20 10:32N 44°24' E 008°45'0 0.0
2017-Feb-20 09:32N 44°24' E 008°45'0 0.1
2017-Feb-20 08:26N 44°23' E 008°45'0 0.0
2017-Feb-20 07:26N 44°23' E 008°45'0 0.1
2017-Feb-20 06:26N 44°23' E 008°45'0 0.0
2017-Feb-20 05:32N 44°23' E 008°45'0 0.1
2017-Feb-20 04:33N 44°23' E 008°45'7 7.3
2017-Feb-20 03:33N 44°18' E 008°51'1414.2
2017-Feb-20 02:33N 44°12' E 009°09'1716.5
2017-Feb-20 01:33N 44°05' E 009°30'1616.0
2017-Feb-20 00:33N 44°02' E 009°52'5 4.8
2017-Feb-19 23:33N 44°06' E 009°51'0 0.0
2017-Feb-19 22:33N 44°06' E 009°51'0 0.0
2017-Feb-19 21:33N 44°06' E 009°51'0 0.0
2017-Feb-19 20:33N 44°06' E 009°51'0 0.0
2017-Feb-19 19:33N 44°06' E 009°51'0 0.0
2017-Feb-19 18:30N 44°06' E 009°51'0 0.0
2017-Feb-19 17:33N 44°06' E 009°51'0 0.0
2017-Feb-19 16:33N 44°06' E 009°51'0 0.0
2017-Feb-19 15:27N 44°06' E 009°51'0 0.0
2017-Feb-19 14:30N 44°06' E 009°51'0 0.0
2017-Feb-19 13:30N 44°06' E 009°51'0 0.0
2017-Feb-19 12:33N 44°06' E 009°51'0 0.0
2017-Feb-19 11:33N 44°06' E 009°51'0 0.0
2017-Feb-19 10:33N 44°06' E 009°51'0 0.0
2017-Feb-19 09:33N 44°06' E 009°51'0 0.0
2017-Feb-19 08:30N 44°06' E 009°51'0 0.0
2017-Feb-19 07:33N 44°06' E 009°51'0 0.0
2017-Feb-19 06:33N 44°06' E 009°51'0 0.0
2017-Feb-19 05:33N 44°06' E 009°51'0 0.0
2017-Feb-19 04:33N 44°06' E 009°51'0 0.0
2017-Feb-19 03:33N 44°06' E 009°51'0 0.0
2017-Feb-19 02:33N 44°06' E 009°51'0 0.0
2017-Feb-19 01:33N 44°06' E 009°51'0 0.0
2017-Feb-19 00:33N 44°06' E 009°51'0 0.0
2017-Feb-18 23:33N 44°06' E 009°51'0 0.0
2017-Feb-18 22:33N 44°06' E 009°51'0 0.0
2017-Feb-18 21:33N 44°06' E 009°51'2 2.3
2017-Feb-18 20:34N 44°04' E 009°51'6 6.0
2017-Feb-18 19:34N 43°58' E 009°52'0 0.3
2017-Feb-18 18:34N 43°58' E 009°52'1 0.6
2017-Feb-18 17:33N 43°58' E 009°53'5 5.3
2017-Feb-18 16:34N 43°53' E 009°51'1010.1
2017-Feb-18 15:33N 43°45' E 009°43'1110.5
2017-Feb-18 14:34N 43°36' E 009°34'1110.8
2017-Feb-18 13:34N 43°27' E 009°27'1010.3
2017-Feb-18 12:34N 43°19' E 009°17'1110.6
2017-Feb-18 11:33N 43°11' E 009°08'35016.5
2017-Feb-17 14:24N 39°04' E 003°39'1518.2
2017-Feb-17 13:33N 38°56' E 003°22'1818.0
2017-Feb-17 12:33N 38°46' E 003°03'1918.5
2017-Feb-17 11:33N 38°36' E 002°43'2119.0
2017-Feb-17 10:28N 38°25' E 002°21'38119.1
2017-Feb-16 14:33N 36°02' W 005°03'1918.8
2017-Feb-16 13:33N 35°58' W 005°25'1918.8
2017-Feb-16 12:33N 35°53' W 005°48'  
Track history (hours):
 
Tides and Currents Weather Stations Pressure Air Temp Water Temp Dewpoint Dewpoint Depression Visibility Wind Speed Wind Dir Waves Ship Positions

MSC Gina

Last reported at 2017-Feb-24 12:25 UTC. Time now 2017-Feb-24 12:39 UTC.
Position N 37°04' W 000°49'.

Length 259 m; draft 10.4 m.

Type: Ship (hazmat cat A). MMSI: 357542000.

Date/timePositionNaut miles runAvg speedWind from/ knotsBaromVisibWave heightAir tempDewpointWater temp
2017-Feb-24 12:25N 37°04' W 000°49'16120.1
2017-Feb-24 04:26N 38°22' E 002°08'1819.9
2017-Feb-24 03:33N 38°31' E 002°27'2020.3
2017-Feb-24 02:33N 38°42' E 002°50'2020.3
2017-Feb-24 01:33N 38°52' E 003°12'2019.4
2017-Feb-24 00:32N 39°03' E 003°34'2020.0
2017-Feb-23 23:33N 39°13' E 003°55'7919.7
2017-Feb-23 19:33N 40°04' E 005°13'2019.6
2017-Feb-23 18:31N 40°19' E 005°30'3819.5
2017-Feb-23 16:33N 40°49' E 006°03'10019.8
2017-Feb-23 11:31N 42°05' E 007°28'9719.5
2017-Feb-23 06:33N 43°08' E 009°08'1919.6
2017-Feb-23 05:33N 43°20' E 009°29'2020.0
2017-Feb-23 04:33N 43°31' E 009°52'1817.7
2017-Feb-23 03:33N 43°32' E 010°16'3 2.7
2017-Feb-23 02:32N 43°35' E 010°18'0 0.0
2017-Feb-23 01:26N 43°35' E 010°18'0 0.0
2017-Feb-23 00:33N 43°35' E 010°18'0 0.0
2017-Feb-22 23:33N 43°35' E 010°18'0 0.0
2017-Feb-22 22:33N 43°35' E 010°18'0 0.0
2017-Feb-22 21:33N 43°35' E 010°18'0 0.0
2017-Feb-22 20:33N 43°35' E 010°18'0 0.0
2017-Feb-22 19:33N 43°35' E 010°18'0 0.0
2017-Feb-22 18:33N 43°35' E 010°18'0 0.0
2017-Feb-22 17:33N 43°35' E 010°18'0 0.0
2017-Feb-22 16:33N 43°35' E 010°18'0 0.0
2017-Feb-22 15:33N 43°35' E 010°18'0 0.0
2017-Feb-22 14:33N 43°35' E 010°18'0 0.0
2017-Feb-22 13:33N 43°35' E 010°18'0 0.0
2017-Feb-22 12:33N 43°35' E 010°18'0 0.0
2017-Feb-22 11:33N 43°35' E 010°18'0 0.0
2017-Feb-22 10:33N 43°35' E 010°18'0 0.0
2017-Feb-22 09:33N 43°35' E 010°18'0 0.0
2017-Feb-22 08:33N 43°35' E 010°18'0 0.0
2017-Feb-22 07:33N 43°35' E 010°18'0 0.0
2017-Feb-22 06:33N 43°35' E 010°18'0 0.0
2017-Feb-22 05:33N 43°35' E 010°18'0 0.0
2017-Feb-22 04:33N 43°35' E 010°18'0 0.0
2017-Feb-22 03:33N 43°35' E 010°18'0 0.0
2017-Feb-22 02:33N 43°35' E 010°18'0 0.0
2017-Feb-22 01:33N 43°35' E 010°18'0 0.0
2017-Feb-22 00:33N 43°35' E 010°18'0 0.0
2017-Feb-21 23:33N 43°35' E 010°18'0 0.0
2017-Feb-21 22:33N 43°35' E 010°18'0 0.0
2017-Feb-21 21:33N 43°35' E 010°18'0 0.0
2017-Feb-21 20:33N 43°35' E 010°18'0 0.0
2017-Feb-21 19:33N 43°35' E 010°18'0 0.0
2017-Feb-21 18:33N 43°35' E 010°18'2 1.9
2017-Feb-21 17:33N 43°33' E 010°17'10 9.5
2017-Feb-21 16:33N 43°29' E 010°06'2120.9
2017-Feb-21 15:34N 43°39' E 009°40'2120.8
2017-Feb-21 14:34N 43°54' E 009°21'2120.9
2017-Feb-21 13:34N 44°09' E 008°60'1918.6
2017-Feb-21 12:33N 44°23' E 008°43'4 3.5
2017-Feb-21 11:32N 44°25' E 008°47'0 0.0
2017-Feb-21 10:32N 44°25' E 008°47'0 0.0
2017-Feb-21 09:32N 44°25' E 008°47'0 0.0
2017-Feb-21 08:32N 44°25' E 008°47'0 0.0
2017-Feb-21 07:32N 44°25' E 008°47'0 0.0
2017-Feb-21 06:32N 44°25' E 008°47'0 0.0
2017-Feb-21 05:32N 44°25' E 008°47'0 0.0
2017-Feb-21 04:32N 44°25' E 008°47'0 0.0
2017-Feb-21 03:32N 44°25' E 008°47'0 0.0
2017-Feb-21 02:32N 44°25' E 008°47'0 0.0
2017-Feb-21 01:29N 44°25' E 008°47'0 0.0
2017-Feb-21 00:32N 44°25' E 008°47'0 0.0
2017-Feb-20 23:32N 44°25' E 008°47'0 0.0
2017-Feb-20 22:32N 44°25' E 008°47'0 0.0
2017-Feb-20 21:32N 44°25' E 008°47'0 0.0
2017-Feb-20 20:32N 44°25' E 008°47'0 0.0
2017-Feb-20 19:32N 44°25' E 008°47'0 0.0
2017-Feb-20 18:32N 44°25' E 008°47'0 0.0
2017-Feb-20 17:32N 44°25' E 008°47'1 1.2
2017-Feb-20 16:33N 44°25' E 008°46'1 1.5
2017-Feb-20 15:34N 44°24' E 008°45'0 0.0
2017-Feb-20 14:32N 44°24' E 008°45'0 0.0
2017-Feb-20 13:32N 44°24' E 008°45'0 0.0
2017-Feb-20 12:32N 44°24' E 008°45'0 0.0
2017-Feb-20 11:32N 44°24' E 008°45'0 0.1
2017-Feb-20 10:32N 44°24' E 008°45'0 0.0
2017-Feb-20 09:32N 44°24' E 008°45'0 0.1
2017-Feb-20 08:26N 44°23' E 008°45'0 0.0
2017-Feb-20 07:26N 44°23' E 008°45'0 0.1
2017-Feb-20 06:26N 44°23' E 008°45'0 0.0
2017-Feb-20 05:32N 44°23' E 008°45'0 0.1
2017-Feb-20 04:33N 44°23' E 008°45'7 7.3
2017-Feb-20 03:33N 44°18' E 008°51'1414.2
2017-Feb-20 02:33N 44°12' E 009°09'1716.5
2017-Feb-20 01:33N 44°05' E 009°30'1616.0
2017-Feb-20 00:33N 44°02' E 009°52'5 4.8
2017-Feb-19 23:33N 44°06' E 009°51'0 0.0
2017-Feb-19 22:33N 44°06' E 009°51'0 0.0
2017-Feb-19 21:33N 44°06' E 009°51'0 0.0
2017-Feb-19 20:33N 44°06' E 009°51'0 0.0
2017-Feb-19 19:33N 44°06' E 009°51'0 0.0
2017-Feb-19 18:30N 44°06' E 009°51'0 0.0
2017-Feb-19 17:33N 44°06' E 009°51'0 0.0
2017-Feb-19 16:33N 44°06' E 009°51'0 0.0
2017-Feb-19 15:27N 44°06' E 009°51'0 0.0
2017-Feb-19 14:30N 44°06' E 009°51'0 0.0
2017-Feb-19 13:30N 44°06' E 009°51'0 0.0
2017-Feb-19 12:33N 44°06' E 009°51'0 0.0
2017-Feb-19 11:33N 44°06' E 009°51'0 0.0
2017-Feb-19 10:33N 44°06' E 009°51'0 0.0
2017-Feb-19 09:33N 44°06' E 009°51'0 0.0
2017-Feb-19 08:30N 44°06' E 009°51'0 0.0
2017-Feb-19 07:33N 44°06' E 009°51'0 0.0
2017-Feb-19 06:33N 44°06' E 009°51'0 0.0
2017-Feb-19 05:33N 44°06' E 009°51'0 0.0
2017-Feb-19 04:33N 44°06' E 009°51'0 0.0
2017-Feb-19 03:33N 44°06' E 009°51'0 0.0
2017-Feb-19 02:33N 44°06' E 009°51'0 0.0
2017-Feb-19 01:33N 44°06' E 009°51'0 0.0
2017-Feb-19 00:33N 44°06' E 009°51'0 0.0
2017-Feb-18 23:33N 44°06' E 009°51'0 0.0
2017-Feb-18 22:33N 44°06' E 009°51'0 0.0
2017-Feb-18 21:33N 44°06' E 009°51'2 2.3
2017-Feb-18 20:34N 44°04' E 009°51'6 6.0
2017-Feb-18 19:34N 43°58' E 009°52'0 0.3
2017-Feb-18 18:34N 43°58' E 009°52'1 0.6
2017-Feb-18 17:33N 43°58' E 009°53'5 5.3
2017-Feb-18 16:34N 43°53' E 009°51'1010.1
2017-Feb-18 15:33N 43°45' E 009°43'1110.5
2017-Feb-18 14:34N 43°36' E 009°34'1110.8
2017-Feb-18 13:34N 43°27' E 009°27'1010.3
2017-Feb-18 12:34N 43°19' E 009°17'1110.6
2017-Feb-18 11:33N 43°11' E 009°08'35016.5
2017-Feb-17 14:24N 39°04' E 003°39'1518.2
2017-Feb-17 13:33N 38°56' E 003°22'1818.0
2017-Feb-17 12:33N 38°46' E 003°03'1918.5
2017-Feb-17 11:33N 38°36' E 002°43'2119.0
2017-Feb-17 10:28N 38°25' E 002°21'38119.1
2017-Feb-16 14:33N 36°02' W 005°03'1918.8
2017-Feb-16 13:33N 35°58' W 005°25'1918.8
2017-Feb-16 12:33N 35°53' W 005°48'  

Dump ship's entire track history